Time;durP1;ratioP1;P1;durP2;ratioP2;P2;SDS_P1;SDS_P2;PMS_P1;PMS_P2;Temp;Humidity;BMP_temperature;BMP_pressure;BME280_temperature;BME280_humidity;BME280_pressure;Samples;Min_cycle;Max_cycle;Signal;HPM_P1;HPM_P2
2021/01/14 00:02:21;;;;;;;3.23;0.83;;;;;;;-0.49;100.00;97431.22;3718160;78;44045;-19
2021/01/14 00:07:27;;;;;;;5.60;0.90;;;;;;;-0.50;100.00;97456.45;3715263;80;43733;-19
2021/01/14 00:12:33;;;;;;;0.90;0.73;;;;;;;-0.57;100.00;97449.45;3715346;79;43433;-20
2021/01/14 00:17:39;;;;;;;2.90;0.97;;;;;;;-0.54;100.00;97446.59;3717709;80;43256;-20
2021/01/14 00:22:45;;;;;;;2.53;1.07;;;;;;;-0.52;100.00;97436.73;3717228;78;44103;-20
2021/01/14 00:27:51;;;;;;;2.70;1.03;;;;;;;-0.50;100.00;97442.77;3715267;80;43689;-20
2021/01/14 00:32:59;;;;;;;3.50;1.00;;;;;;;-0.56;100.00;97460.90;3715165;78;45032;-20
2021/01/14 00:38:06;;;;;;;4.50;0.97;;;;;;;-0.64;100.00;97462.79;3715078;78;43365;-20
2021/01/14 00:43:12;;;;;;;3.77;1.10;;;;;;;-0.64;100.00;97451.72;3715326;80;44019;-20
2021/01/14 00:48:18;;;;;;;4.27;0.83;;;;;;;-0.56;100.00;97459.58;3706926;80;44090;-20
2021/01/14 00:53:24;;;;;;;6.27;1.10;;;;;;;-0.54;100.00;97467.75;3671291;78;44155;-20
2021/01/14 00:58:30;;;;;;;1.80;0.80;;;;;;;-0.60;100.00;97476.63;3676472;80;44047;-20
2021/01/14 01:03:35;;;;;;;2.27;0.83;;;;;;;-0.64;100.00;97472.88;3647320;81;44097;-20
2021/01/14 01:08:41;;;;;;;5.90;1.10;;;;;;;-0.62;100.00;97476.75;3703441;79;44168;-20
2021/01/14 01:13:47;;;;;;;6.07;1.30;;;;;;;-0.65;100.00;97466.39;3584865;81;43436;-20
2021/01/14 01:18:53;;;;;;;1.73;0.80;;;;;;;-0.66;100.00;97473.95;3616029;81;44122;-20
2021/01/14 01:23:59;;;;;;;2.73;0.90;;;;;;;-0.63;100.00;97485.64;3629617;79;44103;-20
2021/01/14 01:29:06;;;;;;;2.40;0.90;;;;;;;-0.69;100.00;97491.37;3615278;81;43718;-20
2021/01/14 01:34:11;;;;;;;2.67;1.00;;;;;;;-0.71;100.00;97504.72;3582084;81;44088;-20
2021/01/14 01:39:18;;;;;;;5.90;2.10;;;;;;;-0.70;100.00;97509.05;3624535;81;43692;-20
2021/01/14 01:44:24;;;;;;;1.33;0.80;;;;;;;-0.69;100.00;97525.30;3639028;80;43297;-20
2021/01/14 01:49:31;;;;;;;3.07;1.00;;;;;;;-0.62;100.00;97509.32;3635422;81;43733;-20
2021/01/14 01:54:37;;;;;;;4.50;0.80;;;;;;;-0.66;100.00;97509.20;3658904;81;44111;-20
2021/01/14 01:59:43;;;;;;;3.37;0.80;;;;;;;-0.67;100.00;97518.09;3638080;79;43301;-20
2021/01/14 02:04:50;;;;;;;2.53;0.90;;;;;;;-0.67;100.00;97520.73;3583260;81;44022;-20
2021/01/14 02:09:57;;;;;;;3.93;1.03;;;;;;;-0.64;100.00;97537.69;3653891;80;43111;-66
2021/01/14 02:15:04;;;;;;;2.40;1.13;;;;;;;-0.65;100.00;97521.45;3634869;80;43692;-20
2021/01/14 02:20:14;;;;;;;5.00;1.20;;;;;;;-0.64;100.00;97523.13;3659650;81;44709;-20
2021/01/14 02:25:23;;;;;;;4.67;1.83;;;;;;;-0.62;100.00;97525.20;3661738;81;44514;-21
2021/01/14 02:30:30;;;;;;;2.60;1.00;;;;;;;-0.66;100.00;97527.72;3660371;79;43361;-21
2021/01/14 02:35:35;;;;;;;2.37;1.13;;;;;;;-0.68;100.00;97534.06;3658280;81;44018;-20
2021/01/14 02:40:42;;;;;;;1.30;1.10;;;;;;;-0.67;100.00;97533.97;3658350;80;44026;-21
2021/01/14 02:45:48;;;;;;;2.17;1.40;;;;;;;-0.69;100.00;97538.52;3658292;81;43481;-21
2021/01/14 02:50:56;;;;;;;1.50;0.93;;;;;;;-0.67;100.00;97555.13;3661426;80;44101;-20
2021/01/14 02:56:03;;;;;;;2.87;1.13;;;;;;;-0.74;100.00;97541.97;3661723;80;44050;-20
2021/01/14 03:01:09;;;;;;;8.13;1.50;;;;;;;-0.73;100.00;97536.21;3661274;79;44438;-20
2021/01/14 03:06:15;;;;;;;2.80;1.40;;;;;;;-0.83;100.00;97541.31;3658313;81;43714;-20
2021/01/14 03:11:27;;;;;;;1.70;1.10;;;;;;;-0.88;100.00;97544.79;3671644;80;44087;-21
2021/01/14 03:16:38;;;;;;;4.63;1.67;;;;;;;-0.92;100.00;97561.33;3698799;77;43651;-21
2021/01/14 03:21:45;;;;;;;2.80;1.20;;;;;;;-0.96;100.00;97559.88;3658332;81;43412;-20
2021/01/14 03:26:51;;;;;;;2.07;1.10;;;;;;;-1.03;100.00;97571.83;3659893;80;44154;-21
2021/01/14 03:32:02;;;;;;;7.07;1.60;;;;;;;-1.06;100.00;97578.19;3691568;78;44055;-20
2021/01/14 03:37:08;;;;;;;2.67;1.50;;;;;;;-1.16;100.00;97600.45;3750874;77;44121;-20
2021/01/14 03:42:16;;;;;;;1.87;1.67;;;;;;;-1.27;100.00;97612.25;3714609;78;44049;-20
2021/01/14 03:47:24;;;;;;;2.47;1.40;;;;;;;-1.49;100.00;97603.67;3664393;80;44049;-20
2021/01/14 03:52:30;;;;;;;1.60;1.03;;;;;;;-1.47;100.00;97607.88;3713648;80;43680;-20
2021/01/14 03:57:37;;;;;;;2.00;1.20;;;;;;;-1.46;100.00;97616.64;3712102;80;44093;-19
2021/01/14 04:02:42;;;;;;;3.80;1.50;;;;;;;-1.43;100.00;97619.08;3717267;78;44003;-20
2021/01/14 04:07:51;;;;;;;3.37;1.70;;;;;;;-1.39;100.00;97641.71;3716120;78;43474;-20
2021/01/14 04:12:57;;;;;;;1.83;1.43;;;;;;;-1.36;100.00;97632.26;3684244;78;44095;-20
2021/01/14 04:18:03;;;;;;;3.30;1.70;;;;;;;-1.38;100.00;97647.37;3735456;78;44102;-19
2021/01/14 04:23:08;;;;;;;5.20;1.50;;;;;;;-1.35;100.00;97664.30;3716300;80;43284;-18
2021/01/14 04:28:16;;;;;;;4.40;1.90;;;;;;;-1.41;100.00;97677.46;3708636;80;44054;-18
2021/01/14 04:33:22;;;;;;;4.10;1.80;;;;;;;-1.50;100.00;97683.86;3648239;80;43460;-18
2021/01/14 04:38:29;;;;;;;3.37;1.60;;;;;;;-1.53;100.00;97699.91;3687615;78;43409;-18
2021/01/14 04:43:35;;;;;;;2.03;1.40;;;;;;;-1.56;100.00;97697.02;3718374;78;44497;-18
2021/01/14 04:48:44;;;;;;;3.70;1.53;;;;;;;-1.52;100.00;97690.55;3716351;80;43697;-18
2021/01/14 04:53:51;;;;;;;3.17;1.60;;;;;;;-1.46;100.00;97720.99;3715829;80;43673;-18
2021/01/14 04:59:00;;;;;;;2.20;1.50;;;;;;;-1.40;100.00;97729.36;3718248;80;43380;-19
2021/01/14 05:04:08;;;;;;;2.10;1.50;;;;;;;-1.35;100.00;97739.61;3718878;80;43336;-19
2021/01/14 05:09:17;;;;;;;5.30;1.80;;;;;;;-1.31;100.00;97740.28;3717482;78;44046;-18
2021/01/14 05:14:23;;;;;;;4.60;1.83;;;;;;;-1.28;100.00;97755.44;3679959;80;44131;-24
2021/01/14 05:19:29;;;;;;;2.30;1.57;;;;;;;-1.23;100.00;97748.52;3657338;80;44157;-18
2021/01/14 05:24:35;;;;;;;4.27;1.77;;;;;;;-1.25;100.00;97764.50;3657860;81;43476;-18
2021/01/14 05:29:42;;;;;;;5.07;2.40;;;;;;;-1.18;100.00;97774.18;3659237;80;44944;-19
2021/01/14 05:34:50;;;;;;;3.80;1.80;;;;;;;-1.13;100.00;97777.83;3661560;80;44087;-18
2021/01/14 05:39:56;;;;;;;3.13;1.60;;;;;;;-1.14;100.00;97785.39;3662341;81;42703;-19
2021/01/14 05:45:02;;;;;;;2.30;1.80;;;;;;;-1.14;100.00;97780.10;3642679;79;43712;-18
2021/01/14 05:50:12;;;;;;;3.97;1.83;;;;;;;-1.17;100.00;97799.63;3550578;81;43483;-18
2021/01/14 05:55:20;;;;;;;2.90;1.53;;;;;;;-1.22;100.00;97809.69;3531636;81;43347;-18
2021/01/14 06:00:30;;;;;;;3.50;2.20;;;;;;;-1.26;100.00;97827.55;3550250;81;44484;-19
2021/01/14 06:05:36;;;;;;;4.60;2.20;;;;;;;-1.23;100.00;97840.20;3544968;82;44377;-19
2021/01/14 06:10:44;;;;;;;4.90;2.03;;;;;;;-1.26;100.00;97852.66;3587577;82;44010;-19
2021/01/14 06:16:00;;;;;;;4.87;2.27;;;;;;;-1.25;100.00;97875.50;3564475;81;44197;-19
2021/01/14 06:21:06;;;;;;;4.80;2.40;;;;;;;-1.26;100.00;97868.52;3587689;82;44141;-18
2021/01/14 06:26:15;;;;;;;4.80;2.57;;;;;;;-1.24;100.00;97877.66;3526733;82;44054;-18
2021/01/14 06:31:27;;;;;;;7.10;2.43;;;;;;;-1.23;100.00;97878.52;3592482;81;44122;-18
2021/01/14 06:36:36;;;;;;;3.40;2.40;;;;;;;-1.23;100.00;97894.38;3601734;82;43388;-18
2021/01/14 06:41:43;;;;;;;3.70;2.23;;;;;;;-1.23;100.00;97907.59;3563447;82;43466;-17
2021/01/14 06:46:52;;;;;;;4.83;2.23;;;;;;;-1.16;100.00;97926.05;3546164;81;43722;-18
2021/01/14 06:52:00;;;;;;;2.67;2.10;;;;;;;-1.16;100.00;97926.05;3598486;82;43709;-19
2021/01/14 06:57:16;;;;;;;4.07;2.20;;;;;;;-1.12;100.00;97939.45;3601035;81;43361;-19
2021/01/14 07:02:51;;;;;;;3.80;2.17;;;;;;;-1.14;100.00;97952.75;3597711;81;44048;-18
2021/01/14 07:08:21;;;;;;;3.57;1.97;;;;;;;-1.08;100.00;97966.05;3598766;81;43065;-19
2021/01/14 07:13:31;;;;;;;2.37;2.10;;;;;;;-1.03;100.00;97977.64;3581545;81;44423;-18
2021/01/14 07:18:38;;;;;;;7.43;2.20;;;;;;;-1.01;100.00;97981.91;3598960;81;43242;-18
2021/01/14 07:23:49;;;;;;;4.00;2.00;;;;;;;-0.99;100.00;97995.84;3598702;82;43477;-19
2021/01/14 07:28:56;;;;;;;6.30;2.50;;;;;;;-1.05;100.00;98024.02;3598488;82;43684;-19
2021/01/14 07:34:23;;;;;;;4.27;2.57;;;;;;;-1.18;100.00;98031.03;3603680;81;43736;-19
2021/01/14 07:40:10;;;;;;;4.70;2.97;;;;;;;-1.26;100.00;98044.72;3642023;81;43829;-19
2021/01/14 07:45:16;;;;;;;5.43;2.90;;;;;;;-1.30;100.00;98050.68;3595101;81;44449;-18
2021/01/14 07:50:25;;;;;;;4.73;3.20;;;;;;;-1.29;100.00;98069.56;3636849;80;43958;-19
2021/01/14 07:55:32;;;;;;;4.53;3.33;;;;;;;-1.20;100.00;98080.04;3652863;81;44056;-19
2021/01/14 08:00:40;;;;;;;7.17;3.27;;;;;;;-1.09;100.00;98095.20;3652773;80;43325;-19
2021/01/14 08:05:56;;;;;;;4.90;3.00;;;;;;;-0.99;100.00;98095.49;3651922;81;44480;-19
2021/01/14 08:11:17;;;;;;;5.00;2.97;;;;;;;-0.92;100.00;98107.86;3652048;81;44449;-19
2021/01/14 08:16:32;;;;;;;6.87;3.23;;;;;;;-0.86;100.00;98110.97;3618740;80;43475;-19
2021/01/14 08:21:38;;;;;;;4.50;3.10;;;;;;;-0.82;100.00;98120.87;3651686;81;44052;-19
2021/01/14 08:26:58;;;;;;;4.63;2.63;;;;;;;-0.77;100.00;98138.64;3612448;80;135279;-19
2021/01/14 08:32:03;;;;;;;4.07;2.90;;;;;;;-0.74;100.00;98147.68;3519298;83;44139;-19
2021/01/14 08:37:11;;;;;;;6.10;3.20;;;;;;;-0.71;100.00;98171.30;3550884;82;43717;-19
2021/01/14 08:42:18;;;;;;;5.53;2.97;;;;;;;-0.71;100.00;98179.73;3465228;84;44232;-19
2021/01/14 08:47:56;;;;;;;3.47;2.50;;;;;;;-0.69;100.00;98203.80;3509950;83;43752;-19
2021/01/14 08:53:04;;;;;;;4.70;2.80;;;;;;;-0.69;100.00;98205.13;3521519;83;44051;-19
2021/01/14 08:58:10;;;;;;;5.63;3.73;;;;;;;-0.58;100.00;98211.54;3547973;82;43448;-19
2021/01/14 09:03:17;;;;;;;5.57;3.20;;;;;;;-0.51;100.00;98226.07;3557527;83;43079;-19
2021/01/14 09:08:23;;;;;;;5.57;3.60;;;;;;;-0.37;100.00;98236.64;3526147;83;44011;-19
2021/01/14 09:13:30;;;;;;;5.13;3.27;;;;;;;-0.33;100.00;98253.18;3504787;83;44553;-19
2021/01/14 09:18:38;;;;;;;5.37;3.33;;;;;;;-0.28;100.00;98255.53;3545007;83;44093;-19
2021/01/14 09:23:43;;;;;;;5.87;4.10;;;;;;;-0.10;100.00;98276.02;3578936;83;44110;-19
2021/01/14 09:28:50;;;;;;;5.83;3.50;;;;;;;-0.08;100.00;98282.08;3561459;81;44071;-19
2021/01/14 09:33:59;;;;;;;6.60;3.80;;;;;;;-0.07;100.00;98291.27;3542674;83;44198;-20
2021/01/14 09:39:07;;;;;;;6.13;3.93;;;;;;;-0.02;100.00;98313.48;3551781;83;43998;-19
2021/01/14 09:44:14;;;;;;;5.87;3.63;;;;;;;-0.02;100.00;98327.56;3560757;83;44046;-19
2021/01/14 09:49:21;;;;;;;6.60;3.50;;;;;;;0.03;100.00;98335.70;3552371;83;43317;-19
2021/01/14 09:54:28;;;;;;;7.77;3.87;;;;;;;0.08;100.00;98341.55;3532932;81;43678;-20
2021/01/14 09:59:37;;;;;;;4.93;3.10;;;;;;;0.05;100.00;98350.55;3556410;81;43284;-20
2021/01/14 10:04:46;;;;;;;4.70;3.33;;;;;;;0.12;100.00;98351.01;3577375;83;44038;-20
2021/01/14 10:09:52;;;;;;;6.87;3.43;;;;;;;0.21;100.00;98362.34;3544010;82;44145;-20
2021/01/14 10:15:10;;;;;;;4.40;3.13;;;;;;;0.29;100.00;98364.50;3543619;82;43374;-20
2021/01/14 10:20:17;;;;;;;6.17;2.87;;;;;;;0.34;100.00;98373.48;3556075;83;43335;-21
2021/01/14 10:25:23;;;;;;;7.00;3.50;;;;;;;0.33;100.00;98369.13;3556241;82;43490;-20
2021/01/14 10:30:31;;;;;;;7.70;3.40;;;;;;;0.35;100.00;98384.47;3555793;82;44203;-20
2021/01/14 10:35:40;;;;;;;5.40;3.00;;;;;;;0.43;100.00;98375.09;3512390;83;44066;-21
2021/01/14 10:40:48;;;;;;;7.53;3.30;;;;;;;0.44;100.00;98386.52;3543333;83;44109;-21
2021/01/14 10:45:55;;;;;;;6.50;3.23;;;;;;;0.38;100.00;98388.25;3520981;83;43669;-21
2021/01/14 10:51:01;;;;;;;7.13;3.40;;;;;;;0.58;100.00;98385.17;3555324;83;44813;-21
2021/01/14 10:56:10;;;;;;;7.50;2.57;;;;;;;0.67;100.00;98392.14;3555793;82;43992;-20
2021/01/14 11:01:19;;;;;;;5.30;3.00;;;;;;;0.89;100.00;98391.11;3535709;83;43473;-21
2021/01/14 11:06:33;;;;;;;3.93;2.73;;;;;;;1.01;100.00;98390.79;3521922;82;43377;-20
2021/01/14 11:11:40;;;;;;;7.23;2.97;;;;;;;1.02;100.00;98384.99;3555434;82;43968;-20
2021/01/14 11:16:47;;;;;;;6.10;2.80;;;;;;;1.05;100.00;98386.13;3546192;83;44036;-21
2021/01/14 11:21:53;;;;;;;5.07;2.80;;;;;;;0.99;100.00;98381.25;3523642;84;44141;-21
2021/01/14 11:26:59;;;;;;;7.13;3.20;;;;;;;0.94;100.00;98385.53;3523755;83;44201;-21
2021/01/14 11:32:06;;;;;;;5.97;2.90;;;;;;;0.97;100.00;98391.10;3526352;83;43291;-19
2021/01/14 11:37:13;;;;;;;4.40;2.80;;;;;;;1.06;100.00;98382.03;3578505;81;44144;-20
2021/01/14 11:42:19;;;;;;;6.13;2.63;;;;;;;1.22;100.00;98379.23;3551074;83;43693;-19
2021/01/14 11:47:26;;;;;;;7.07;2.93;;;;;;;1.12;100.00;98373.30;3536426;83;44501;-19
2021/01/14 11:52:31;;;;;;;5.23;3.13;;;;;;;1.06;100.00;98372.75;3534264;83;43975;-19
2021/01/14 11:57:37;;;;;;;6.73;3.10;;;;;;;1.17;100.00;98378.67;3569839;81;43362;-19
2021/01/14 12:02:44;;;;;;;5.73;2.90;;;;;;;1.06;100.00;98386.50;3524768;81;44168;-19
2021/01/14 12:07:51;;;;;;;6.23;2.80;;;;;;;1.12;100.00;98391.39;3573647;81;44099;-19
2021/01/14 12:12:57;;;;;;;5.73;2.97;;;;;;;0.96;100.00;98398.68;3576562;83;43266;-20
2021/01/14 12:18:04;;;;;;;5.37;3.30;;;;;;;0.99;100.00;98405.95;3550225;83;44426;-19
2021/01/14 12:23:11;;;;;;;5.13;2.93;;;;;;;0.97;100.00;98397.73;3502682;85;43682;-19
2021/01/14 12:28:19;;;;;;;5.33;3.20;;;;;;;1.00;100.00;98407.66;3502793;83;43463;-19
2021/01/14 12:33:25;;;;;;;7.23;3.30;;;;;;;0.88;100.00;98407.13;3502942;85;44406;-20
2021/01/14 12:38:31;;;;;;;6.43;3.10;;;;;;;0.86;100.00;98413.02;3523592;83;44077;-19
2021/01/14 12:43:37;;;;;;;7.80;3.73;;;;;;;1.01;100.00;98412.47;3520748;82;43368;-19
2021/01/14 12:48:43;;;;;;;7.17;3.80;;;;;;;0.91;100.00;98414.90;3535012;83;43396;-19
2021/01/14 12:53:49;;;;;;;6.53;4.20;;;;;;;0.86;100.00;98407.70;3557039;83;43466;-19
2021/01/14 12:58:56;;;;;;;6.23;3.83;;;;;;;0.80;100.00;98404.98;3540047;83;43996;-19
2021/01/14 13:04:06;;;;;;;6.43;3.97;;;;;;;0.79;100.00;98413.88;3556597;83;43938;-19
2021/01/14 13:09:13;;;;;;;6.07;4.23;;;;;;;0.88;100.00;98415.93;3557075;83;44027;-19
2021/01/14 13:14:19;;;;;;;8.80;4.40;;;;;;;0.86;100.00;98416.98;3546318;82;44034;-19
2021/01/14 13:19:26;;;;;;;9.83;4.10;;;;;;;0.84;100.00;98422.86;3546570;83;43678;-19
2021/01/14 13:24:33;;;;;;;7.27;4.20;;;;;;;0.77;100.00;98431.69;3578723;82;42915;-19
2021/01/14 13:29:39;;;;;;;5.53;3.70;;;;;;;0.75;100.00;98428.31;3546600;83;44173;-19
2021/01/14 13:34:45;;;;;;;6.60;4.00;;;;;;;0.76;100.00;98435.33;3525379;83;44022;-19
2021/01/14 13:39:51;;;;;;;6.80;3.90;;;;;;;0.85;100.00;98439.16;3553412;81;44091;-19
2021/01/14 13:44:56;;;;;;;7.23;4.10;;;;;;;0.79;100.00;98435.59;3545624;81;44603;-19
2021/01/14 13:50:02;;;;;;;7.67;4.50;;;;;;;0.81;100.00;98442.98;3578750;83;43478;-19
2021/01/14 13:55:10;;;;;;;7.10;4.23;;;;;;;0.84;100.00;98449.39;3568316;83;42962;-19
2021/01/14 14:00:18;;;;;;;7.17;4.60;;;;;;;0.84;100.00;98454.69;3572313;81;43354;-19
2021/01/14 14:05:24;;;;;;;8.57;4.20;;;;;;;0.74;100.00;98461.08;3565191;82;43491;-19
2021/01/14 14:10:30;;;;;;;9.50;5.10;;;;;;;0.69;100.00;98465.81;3537383;83;43354;-19
2021/01/14 14:15:37;;;;;;;9.10;4.50;;;;;;;0.62;100.00;98466.67;3531703;81;44051;-19
2021/01/14 14:20:43;;;;;;;10.93;5.37;;;;;;;0.53;100.00;98465.94;3569057;82;44038;-19
2021/01/14 14:25:49;;;;;;;9.87;5.73;;;;;;;0.60;100.00;98470.77;3523649;84;43313;-19
2021/01/14 14:30:55;;;;;;;8.73;5.40;;;;;;;0.59;100.00;98465.08;3568286;83;44077;-19
2021/01/14 14:36:04;;;;;;;9.30;5.50;;;;;;;0.53;100.00;98470.75;3534529;83;43351;-19
2021/01/14 14:41:12;;;;;;;8.77;5.17;;;;;;;0.52;100.00;98472.19;3571058;83;44050;-19
2021/01/14 14:46:22;;;;;;;9.67;6.07;;;;;;;0.42;100.00;98477.20;3555032;83;43698;-20
2021/01/14 14:51:29;;;;;;;10.47;6.10;;;;;;;0.40;100.00;98483.09;3546113;81;43275;-20
2021/01/14 14:56:35;;;;;;;10.57;6.07;;;;;;;0.47;100.00;98488.38;3552340;83;43693;-20
2021/01/14 15:01:41;;;;;;;11.63;6.70;;;;;;;0.37;100.00;98488.58;3547920;83;43163;-18
2021/01/14 15:06:49;;;;;;;13.23;7.10;;;;;;;0.35;100.00;98494.45;3564345;81;43444;-18
2021/01/14 15:11:55;;;;;;;13.13;7.00;;;;;;;0.30;100.00;98507.50;3583500;81;44208;-18
2021/01/14 15:17:01;;;;;;;14.07;7.63;;;;;;;0.37;100.00;98515.08;3576094;81;42774;-18
2021/01/14 15:22:07;;;;;;;12.70;6.57;;;;;;;0.18;100.00;98520.17;3578342;81;43365;-18
2021/01/14 15:27:13;;;;;;;11.67;7.00;;;;;;;0.17;100.00;98524.25;3573555;81;44033;-18
2021/01/14 15:32:19;;;;;;;13.93;6.97;;;;;;;0.12;100.00;98529.34;3525647;82;43704;-19
2021/01/14 15:37:26;;;;;;;12.87;6.87;;;;;;;0.13;100.00;98538.16;3575647;81;44066;-20
2021/01/14 15:42:31;;;;;;;22.67;11.17;;;;;;;0.11;100.00;98537.39;3573871;81;43071;-20
2021/01/14 15:47:39;;;;;;;12.87;7.33;;;;;;;0.13;100.00;98538.99;3571291;81;44073;-20
2021/01/14 15:52:47;;;;;;;13.47;7.07;;;;;;;0.05;100.00;98544.39;3575310;81;44067;-20
2021/01/14 15:57:55;;;;;;;14.10;6.53;;;;;;;0.01;100.00;98557.44;3572033;81;43432;-19
2021/01/14 16:03:02;;;;;;;14.83;6.90;;;;;;;0.07;100.00;98559.70;3576463;81;43681;-20
2021/01/14 16:08:08;;;;;;;11.77;7.13;;;;;;;0.02;100.00;98561.79;3575779;81;44694;-19
2021/01/14 16:13:14;;;;;;;13.40;7.77;;;;;;;0.06;100.00;98565.97;3579288;81;44054;-20
2021/01/14 16:18:20;;;;;;;13.27;7.30;;;;;;;0.02;100.00;98575.87;3574638;81;43682;-19
2021/01/14 16:23:29;;;;;;;12.87;7.10;;;;;;;-0.02;100.00;98571.72;3546446;82;44099;-19
2021/01/14 16:28:37;;;;;;;13.13;7.53;;;;;;;-0.01;100.00;98574.75;3524650;82;43435;-20
2021/01/14 16:33:43;;;;;;;12.63;7.23;;;;;;;-0.10;100.00;98577.46;3554130;82;43999;-19
2021/01/14 16:38:54;;;;;;;14.30;7.50;;;;;;;-0.11;100.00;98572.23;3555314;82;44080;-20
2021/01/14 16:44:00;;;;;;;12.50;7.17;;;;;;;-0.16;100.00;98580.00;3552535;82;44646;-19
2021/01/14 16:49:07;;;;;;;12.43;6.70;;;;;;;-0.16;100.00;98581.78;3556132;82;44087;-19
2021/01/14 16:54:14;;;;;;;28.63;13.17;;;;;;;-0.16;100.00;98591.05;3556606;82;42816;-18
2021/01/14 16:59:20;;;;;;;13.80;7.33;;;;;;;-0.15;100.00;98592.75;3556144;82;44131;-19
2021/01/14 17:04:28;;;;;;;11.33;6.70;;;;;;;-0.15;100.00;98598.05;3556204;82;43703;-19
2021/01/14 17:09:35;;;;;;;13.03;6.83;;;;;;;-0.15;100.00;98592.75;3550881;82;43266;-18
2021/01/14 17:14:42;;;;;;;12.17;6.60;;;;;;;-0.18;100.00;98600.41;3559497;82;42829;-18
2021/01/14 17:19:48;;;;;;;11.77;7.20;;;;;;;-0.19;100.00;98600.52;3557418;82;44083;-18
2021/01/14 17:24:54;;;;;;;13.27;7.20;;;;;;;-0.23;100.00;98592.36;3535458;83;43870;-19
2021/01/14 17:30:00;;;;;;;12.70;7.00;;;;;;;-0.25;100.00;98594.23;3540054;83;44260;-19
2021/01/14 17:35:08;;;;;;;11.70;6.30;;;;;;;-0.25;100.00;98595.56;3547593;82;44556;-18
2021/01/14 17:40:16;;;;;;;12.63;6.80;;;;;;;-0.26;100.00;98597.82;3543490;82;43044;-19
2021/01/14 17:45:22;;;;;;;11.70;6.40;;;;;;;-0.24;100.00;98598.59;3554072;83;44198;-18
2021/01/14 17:50:28;;;;;;;10.00;6.40;;;;;;;-0.33;100.00;98592.89;3555876;83;43722;-20
2021/01/14 17:55:34;;;;;;;11.13;6.60;;;;;;;-0.40;100.00;98597.30;3555088;82;44039;-19
2021/01/14 18:00:41;;;;;;;10.67;6.67;;;;;;;-0.46;100.00;98597.18;3551526;82;43416;-19
2021/01/14 18:05:48;;;;;;;13.70;6.83;;;;;;;-0.47;100.00;98602.09;3553576;82;43321;-19
2021/01/14 18:10:57;;;;;;;10.83;6.23;;;;;;;-0.50;100.00;98600.93;3548070;82;42934;-19
2021/01/14 18:16:04;;;;;;;10.23;6.17;;;;;;;-0.49;100.00;98598.67;3534148;82;43722;-19
2021/01/14 18:21:10;;;;;;;12.37;6.67;;;;;;;-0.48;100.00;98591.12;3530368;81;44083;-19
2021/01/14 18:26:21;;;;;;;9.80;6.10;;;;;;;-0.49;100.00;98593.38;3545760;81;43686;-20
2021/01/14 18:31:27;;;;;;;12.93;6.00;;;;;;;-0.49;100.00;98594.70;3542312;81;43714;-19
2021/01/14 18:36:33;;;;;;;11.40;5.67;;;;;;;-0.46;100.00;98599.83;3587061;79;43297;-19
2021/01/14 18:41:40;;;;;;;10.80;5.90;;;;;;;-0.50;100.00;98596.51;3648050;79;43374;-19
2021/01/14 18:46:47;;;;;;;11.73;5.90;;;;;;;-0.49;100.00;98602.64;3650009;79;44075;-18
2021/01/14 18:51:54;;;;;;;9.57;5.90;;;;;;;-0.51;100.00;98596.13;3644713;79;43362;-19
2021/01/14 18:57:01;;;;;;;10.27;5.50;;;;;;;-0.51;100.00;98600.09;3644445;79;44035;-18
2021/01/14 19:02:08;;;;;;;8.50;5.43;;;;;;;-0.51;100.00;98604.52;3656098;79;43208;-19
2021/01/14 19:07:15;;;;;;;9.67;5.93;;;;;;;-0.52;100.00;98612.06;3656145;79;43436;-19
2021/01/14 19:12:21;;;;;;;13.07;6.57;;;;;;;-0.51;100.00;98609.80;3655437;80;43669;-18
2021/01/14 19:17:27;;;;;;;11.17;6.17;;;;;;;-0.50;100.00;98612.84;3667776;79;44031;-19
2021/01/14 19:22:37;;;;;;;10.63;5.90;;;;;;;-0.51;100.00;98608.03;3623901;79;121278;-19
2021/01/14 19:27:43;;;;;;;8.80;5.37;;;;;;;-0.50;100.00;98607.55;3569836;82;43478;-18
2021/01/14 19:32:49;;;;;;;12.73;6.80;;;;;;;-0.48;100.00;98610.52;3620005;82;43126;-18
2021/01/14 19:37:55;;;;;;;10.83;5.90;;;;;;;-0.49;100.00;98617.20;3579494;82;44072;-19
2021/01/14 19:43:01;;;;;;;10.90;5.87;;;;;;;-0.51;100.00;98615.97;3620262;82;43438;-19
2021/01/14 19:48:08;;;;;;;11.07;6.00;;;;;;;-0.49;100.00;98619.84;3606647;82;43955;-19
2021/01/14 19:53:14;;;;;;;10.60;5.97;;;;;;;-0.56;100.00;98621.14;3563458;82;44248;-19
2021/01/14 19:58:20;;;;;;;11.47;6.17;;;;;;;-0.51;100.00;98627.01;3595782;82;43305;-19
2021/01/14 20:03:26;;;;;;;9.27;5.63;;;;;;;-0.53;100.00;98621.81;3617238;82;43039;-19
2021/01/14 20:08:31;;;;;;;9.13;5.90;;;;;;;-0.58;100.00;98615.08;3582440;82;43132;-19
2021/01/14 20:13:43;;;;;;;11.87;6.70;;;;;;;-0.67;100.00;98617.30;3569791;81;44050;-19
2021/01/14 20:18:46;;;;;;;11.53;7.03;;;;;;;-0.77;100.00;98622.73;3596271;81;43681;-19
2021/01/14 20:23:51;;;;;;;12.47;7.37;;;;;;;-0.95;100.00;98624.59;3595734;82;44237;-19
2021/01/14 20:28:58;;;;;;;13.97;7.10;;;;;;;-0.97;100.00;98622.49;3600471;82;42919;-19
2021/01/14 20:34:04;;;;;;;13.53;6.67;;;;;;;-1.04;100.00;98629.91;3479667;84;44665;-19
2021/01/14 20:39:10;;;;;;;11.63;6.37;;;;;;;-1.05;100.00;98634.80;3632859;81;43382;-19
2021/01/14 20:44:16;;;;;;;12.83;7.30;;;;;;;-1.15;100.00;98644.17;3655366;81;43336;-19
2021/01/14 20:49:21;;;;;;;11.87;6.60;;;;;;;-1.20;100.00;98640.91;3597767;82;43311;-20
2021/01/14 20:54:27;;;;;;;12.10;7.53;;;;;;;-1.31;100.00;98641.48;3573720;82;43688;-20
2021/01/14 20:59:33;;;;;;;13.40;6.90;;;;;;;-1.28;100.00;98642.17;3593751;82;44059;-18
2021/01/14 21:04:39;;;;;;;11.87;6.53;;;;;;;-1.30;100.00;98632.14;3595043;82;43475;-18
2021/01/14 21:09:45;;;;;;;13.40;7.67;;;;;;;-1.32;100.00;98641.09;3569397;82;43276;-18
2021/01/14 21:14:53;;;;;;;14.10;8.57;;;;;;;-1.39;100.00;98643.21;3605116;82;26378;-20
2021/01/14 21:19:59;;;;;;;14.37;8.13;;;;;;;-1.31;100.00;98643.66;3532790;83;43722;-21
2021/01/14 21:25:07;;;;;;;12.73;7.33;;;;;;;-1.36;100.00;98638.22;3622487;81;43348;-20
2021/01/14 21:30:18;;;;;;;13.40;7.80;;;;;;;-1.36;100.00;98628.52;3580917;82;44015;-21
2021/01/14 21:35:24;;;;;;;15.70;8.77;;;;;;;-1.40;100.00;98633.57;3563817;82;43139;-17
2021/01/14 21:40:31;;;;;;;15.13;8.40;;;;;;;-1.39;100.00;98633.96;3562160;82;44034;-17
2021/01/14 21:45:37;;;;;;;12.87;7.03;;;;;;;-1.39;100.00;98633.96;3562167;83;44033;-17
2021/01/14 21:50:43;;;;;;;13.20;7.80;;;;;;;-1.33;100.00;98632.78;3561954;82;44423;-17
2021/01/14 21:55:49;;;;;;;14.27;8.50;;;;;;;-1.30;100.00;98631.30;3595357;82;44074;-17
2021/01/14 22:00:55;;;;;;;13.00;7.80;;;;;;;-1.32;100.00;98636.66;3578371;82;43406;-17
2021/01/14 22:06:00;;;;;;;14.00;7.03;;;;;;;-1.38;100.00;98637.44;3577122;82;43045;-17
2021/01/14 22:11:07;;;;;;;10.30;6.70;;;;;;;-1.35;100.00;98633.33;3564251;82;44041;-17
2021/01/14 22:16:13;;;;;;;10.27;6.00;;;;;;;-1.30;100.00;98630.83;3441161;84;44437;-17
2021/01/14 22:21:20;;;;;;;12.33;6.63;;;;;;;-1.26;100.00;98631.51;3601071;80;43713;-17
2021/01/14 22:26:33;;;;;;;12.47;6.50;;;;;;;-1.28;100.00;98630.28;3663685;81;42867;-17
2021/01/14 22:31:40;;;;;;;11.13;6.10;;;;;;;-1.31;100.00;98630.91;3581409;82;44724;-17
2021/01/14 22:36:48;;;;;;;11.97;7.27;;;;;;;-1.42;100.00;98630.15;3605788;82;44010;-16
2021/01/14 22:41:54;;;;;;;10.73;6.53;;;;;;;-1.53;100.00;98626.77;3601336;82;43749;-16
2021/01/14 22:47:00;;;;;;;12.97;6.60;;;;;;;-1.49;100.00;98630.94;3616634;82;43326;-17
2021/01/14 22:52:06;;;;;;;14.90;7.60;;;;;;;-1.54;100.00;98630.34;3601718;82;44002;-17
2021/01/14 22:57:13;;;;;;;14.37;7.87;;;;;;;-1.50;100.00;98625.74;3615858;82;43728;-16
2021/01/14 23:02:18;;;;;;;13.57;8.07;;;;;;;-1.53;100.00;98626.77;3533521;82;43464;-17
2021/01/14 23:07:25;;;;;;;14.30;7.97;;;;;;;-1.61;100.00;98624.52;3650165;81;44046;-17
2021/01/14 23:12:30;;;;;;;15.33;9.13;;;;;;;-1.62;100.00;98622.80;3606143;82;44103;-17
2021/01/14 23:17:36;;;;;;;14.43;8.57;;;;;;;-1.71;100.00;98627.25;3617378;81;44003;-17
2021/01/14 23:22:48;;;;;;;15.13;9.10;;;;;;;-1.75;100.00;98624.37;3591953;80;43443;-17
2021/01/14 23:27:54;;;;;;;16.40;8.33;;;;;;;-1.77;100.00;98620.95;3615993;82;43710;-17
2021/01/14 23:33:00;;;;;;;17.53;8.97;;;;;;;-1.81;100.00;98620.70;3572228;82;44628;-17
2021/01/14 23:38:06;;;;;;;14.40;8.53;;;;;;;-1.84;100.00;98615.60;3582262;82;44128;-17
2021/01/14 23:43:11;;;;;;;14.90;8.07;;;;;;;-1.86;100.00;98617.84;3626551;82;43086;-17
2021/01/14 23:48:17;;;;;;;12.20;7.13;;;;;;;-1.76;100.00;98625.30;3601140;82;44080;-17